sensor_id;sensor_type;location;lat;lon;timestamp;temperature;humidity
2407;DHT22;37709;53.480;9.688;2022-08-05T00:00:16;16.40;99.90
2407;DHT22;37709;53.480;9.688;2022-08-05T00:02:46;16.40;99.90
2407;DHT22;37709;53.480;9.688;2022-08-05T00:05:22;16.50;99.90
2407;DHT22;37709;53.480;9.688;2022-08-05T00:08:09;16.60;99.90
2407;DHT22;37709;53.480;9.688;2022-08-05T00:10:57;16.60;99.90
2407;DHT22;37709;53.480;9.688;2022-08-05T00:13:30;16.50;99.90
2407;DHT22;37709;53.480;9.688;2022-08-05T00:16:07;16.50;99.90
2407;DHT22;37709;53.480;9.688;2022-08-05T00:18:42;16.40;99.90
2407;DHT22;37709;53.480;9.688;2022-08-05T00:21:11;16.30;99.90
2407;DHT22;37709;53.480;9.688;2022-08-05T00:23:42;16.30;99.90
2407;DHT22;37709;53.480;9.688;2022-08-05T00:26:20;16.20;99.90
2407;DHT22;37709;53.480;9.688;2022-08-05T00:28:49;16.10;99.90
2407;DHT22;37709;53.480;9.688;2022-08-05T00:31:17;16.10;99.90
2407;DHT22;37709;53.480;9.688;2022-08-05T00:34:04;16.10;99.90
2407;DHT22;37709;53.480;9.688;2022-08-05T00:36:52;16.00;99.90
2407;DHT22;37709;53.480;9.688;2022-08-05T00:39:40;16.00;99.90
2407;DHT22;37709;53.480;9.688;2022-08-05T00:42:32;16.00;99.90
2407;DHT22;37709;53.480;9.688;2022-08-05T00:45:00;16.00;99.90
2407;DHT22;37709;53.480;9.688;2022-08-05T00:47:29;15.90;99.90
2407;DHT22;37709;53.480;9.688;2022-08-05T00:50:17;15.90;99.90
2407;DHT22;37709;53.480;9.688;2022-08-05T00:52:47;15.90;99.90
2407;DHT22;37709;53.480;9.688;2022-08-05T00:55:15;15.90;99.90
2407;DHT22;37709;53.480;9.688;2022-08-05T00:57:45;16.00;99.90
2407;DHT22;37709;53.480;9.688;2022-08-05T01:00:27;16.10;99.90
2407;DHT22;37709;53.480;9.688;2022-08-05T01:02:55;16.10;99.90
2407;DHT22;37709;53.480;9.688;2022-08-05T01:05:26;16.10;99.90
2407;DHT22;37709;53.480;9.688;2022-08-05T01:07:54;16.20;99.90
2407;DHT22;37709;53.480;9.688;2022-08-05T01:10:53;16.20;99.90
2407;DHT22;37709;53.480;9.688;2022-08-05T01:13:51;16.20;99.90
2407;DHT22;37709;53.480;9.688;2022-08-05T01:16:36;16.30;99.90
2407;DHT22;37709;53.480;9.688;2022-08-05T01:19:10;16.30;99.90
2407;DHT22;37709;53.480;9.688;2022-08-05T01:22:04;16.40;99.90
2407;DHT22;37709;53.480;9.688;2022-08-05T01:24:59;16.40;99.90
2407;DHT22;37709;53.480;9.688;2022-08-05T01:30:37;16.50;99.90
2407;DHT22;37709;53.480;9.688;2022-08-05T01:33:18;16.50;99.90
2407;DHT22;37709;53.480;9.688;2022-08-05T01:35:54;16.50;99.90
2407;DHT22;37709;53.480;9.688;2022-08-05T01:38:25;16.50;99.90
2407;DHT22;37709;53.480;9.688;2022-08-05T01:40:57;16.60;99.90
2407;DHT22;37709;53.480;9.688;2022-08-05T01:43:28;16.50;99.90
2407;DHT22;37709;53.480;9.688;2022-08-05T01:45:59;16.40;99.90
2407;DHT22;37709;53.480;9.688;2022-08-05T01:48:44;16.30;99.90
2407;DHT22;37709;53.480;9.688;2022-08-05T01:51:17;16.30;99.90
2407;DHT22;37709;53.480;9.688;2022-08-05T01:53:47;16.20;99.90
2407;DHT22;37709;53.480;9.688;2022-08-05T01:56:31;16.20;99.90
2407;DHT22;37709;53.480;9.688;2022-08-05T01:59:20;16.30;99.90
2407;DHT22;37709;53.480;9.688;2022-08-05T02:01:52;16.40;99.90
2407;DHT22;37709;53.480;9.688;2022-08-05T02:04:22;16.40;99.90
2407;DHT22;37709;53.480;9.688;2022-08-05T02:06:53;16.50;99.90
2407;DHT22;37709;53.480;9.688;2022-08-05T02:09:21;16.50;99.90
2407;DHT22;37709;53.480;9.688;2022-08-05T02:12:07;16.40;99.90
2407;DHT22;37709;53.480;9.688;2022-08-05T02:14:42;16.40;99.90
2407;DHT22;37709;53.480;9.688;2022-08-05T02:17:24;16.50;99.90
2407;DHT22;37709;53.480;9.688;2022-08-05T02:20:18;16.50;99.90
2407;DHT22;37709;53.480;9.688;2022-08-05T02:22:53;16.60;99.90
2407;DHT22;37709;53.480;9.688;2022-08-05T02:25:29;16.60;99.90
2407;DHT22;37709;53.480;9.688;2022-08-05T02:28:03;16.50;99.90
2407;DHT22;37709;53.480;9.688;2022-08-05T02:30:44;16.30;99.90
2407;DHT22;37709;53.480;9.688;2022-08-05T02:33:19;16.20;99.90
2407;DHT22;37709;53.480;9.688;2022-08-05T02:36:09;16.10;99.90
2407;DHT22;37709;53.480;9.688;2022-08-05T02:38:45;16.00;99.90
2407;DHT22;37709;53.480;9.688;2022-08-05T02:41:21;15.90;99.90
2407;DHT22;37709;53.480;9.688;2022-08-05T02:43:55;15.90;99.90
2407;DHT22;37709;53.480;9.688;2022-08-05T02:46:34;15.90;99.90
2407;DHT22;37709;53.480;9.688;2022-08-05T02:49:20;15.90;99.90
2407;DHT22;37709;53.480;9.688;2022-08-05T02:51:49;15.80;99.90
2407;DHT22;37709;53.480;9.688;2022-08-05T02:54:32;15.80;99.90
2407;DHT22;37709;53.480;9.688;2022-08-05T02:57:12;15.70;99.90
2407;DHT22;37709;53.480;9.688;2022-08-05T03:00:00;15.60;99.90
2407;DHT22;37709;53.480;9.688;2022-08-05T03:02:30;15.60;99.90
2407;DHT22;37709;53.480;9.688;2022-08-05T03:05:00;15.50;99.90
2407;DHT22;37709;53.480;9.688;2022-08-05T03:07:30;15.40;99.90
2407;DHT22;37709;53.480;9.688;2022-08-05T03:10:18;15.40;99.90
2407;DHT22;37709;53.480;9.688;2022-08-05T03:12:51;15.30;99.90
2407;DHT22;37709;53.480;9.688;2022-08-05T03:15:20;15.30;99.90
2407;DHT22;37709;53.480;9.688;2022-08-05T03:17:53;15.20;99.90
2407;DHT22;37709;53.480;9.688;2022-08-05T03:20:25;15.10;99.90
2407;DHT22;37709;53.480;9.688;2022-08-05T03:22:53;15.10;99.90
2407;DHT22;37709;53.480;9.688;2022-08-05T03:25:25;15.10;99.90
2407;DHT22;37709;53.480;9.688;2022-08-05T03:28:13;15.10;99.90
2407;DHT22;37709;53.480;9.688;2022-08-05T03:30:47;15.00;99.90
2407;DHT22;37709;53.480;9.688;2022-08-05T03:33:16;14.90;99.90
2407;DHT22;37709;53.480;9.688;2022-08-05T03:35:45;14.90;99.90
2407;DHT22;37709;53.480;9.688;2022-08-05T03:38:13;14.80;99.90
2407;DHT22;37709;53.480;9.688;2022-08-05T03:40:42;14.80;99.90
2407;DHT22;37709;53.480;9.688;2022-08-05T03:43:15;14.80;99.90
2407;DHT22;37709;53.480;9.688;2022-08-05T03:46:03;14.80;99.90
2407;DHT22;37709;53.480;9.688;2022-08-05T03:48:34;14.80;99.90
2407;DHT22;37709;53.480;9.688;2022-08-05T03:51:11;14.80;99.90
2407;DHT22;37709;53.480;9.688;2022-08-05T03:54:17;14.80;99.90
2407;DHT22;37709;53.480;9.688;2022-08-05T03:57:07;14.80;99.90
2407;DHT22;37709;53.480;9.688;2022-08-05T04:02:39;14.90;99.90
2407;DHT22;37709;53.480;9.688;2022-08-05T04:05:43;14.80;99.90
2407;DHT22;37709;53.480;9.688;2022-08-05T04:08:14;14.80;99.90
2407;DHT22;37709;53.480;9.688;2022-08-05T04:11:04;14.80;99.90
2407;DHT22;37709;53.480;9.688;2022-08-05T04:13:38;14.90;99.90
2407;DHT22;37709;53.480;9.688;2022-08-05T04:16:17;14.90;99.90
2407;DHT22;37709;53.480;9.688;2022-08-05T04:18:58;14.90;99.90
2407;DHT22;37709;53.480;9.688;2022-08-05T04:21:27;14.80;99.90
2407;DHT22;37709;53.480;9.688;2022-08-05T04:24:15;14.80;99.90
2407;DHT22;37709;53.480;9.688;2022-08-05T04:26:49;14.90;99.90
2407;DHT22;37709;53.480;9.688;2022-08-05T04:29:17;15.00;99.90
2407;DHT22;37709;53.480;9.688;2022-08-05T04:31:46;15.10;99.90
2407;DHT22;37709;53.480;9.688;2022-08-05T04:34:14;15.10;99.90
2407;DHT22;37709;53.480;9.688;2022-08-05T04:36:59;15.10;99.90
2407;DHT22;37709;53.480;9.688;2022-08-05T04:39:30;15.10;99.90
2407;DHT22;37709;53.480;9.688;2022-08-05T04:41:59;15.20;99.90
2407;DHT22;37709;53.480;9.688;2022-08-05T04:44:27;15.30;99.90
2407;DHT22;37709;53.480;9.688;2022-08-05T04:46:57;15.30;99.90
2407;DHT22;37709;53.480;9.688;2022-08-05T04:49:26;15.20;99.90
2407;DHT22;37709;53.480;9.688;2022-08-05T04:52:14;15.20;99.90
2407;DHT22;37709;53.480;9.688;2022-08-05T04:54:42;15.40;99.90
2407;DHT22;37709;53.480;9.688;2022-08-05T04:57:09;15.60;99.90
2407;DHT22;37709;53.480;9.688;2022-08-05T04:59:37;15.70;99.90
2407;DHT22;37709;53.480;9.688;2022-08-05T05:02:07;15.80;99.90
2407;DHT22;37709;53.480;9.688;2022-08-05T05:04:55;15.90;99.90
2407;DHT22;37709;53.480;9.688;2022-08-05T05:07:30;16.00;99.90
2407;DHT22;37709;53.480;9.688;2022-08-05T05:09:59;16.20;99.90
2407;DHT22;37709;53.480;9.688;2022-08-05T05:12:31;16.40;99.90
2407;DHT22;37709;53.480;9.688;2022-08-05T05:14:58;16.50;99.90
2407;DHT22;37709;53.480;9.688;2022-08-05T05:17:41;16.60;99.90
2407;DHT22;37709;53.480;9.688;2022-08-05T05:20:23;16.70;99.90
2407;DHT22;37709;53.480;9.688;2022-08-05T05:22:56;16.80;99.90
2407;DHT22;37709;53.480;9.688;2022-08-05T05:25:24;16.80;99.90
2407;DHT22;37709;53.480;9.688;2022-08-05T05:28:03;16.80;99.90
2407;DHT22;37709;53.480;9.688;2022-08-05T05:30:30;16.90;99.90
2407;DHT22;37709;53.480;9.688;2022-08-05T05:33:02;16.80;99.90
2407;DHT22;37709;53.480;9.688;2022-08-05T05:35:46;16.80;99.90
2407;DHT22;37709;53.480;9.688;2022-08-05T05:38:15;16.70;99.90
2407;DHT22;37709;53.480;9.688;2022-08-05T05:40:54;16.70;99.90
2407;DHT22;37709;53.480;9.688;2022-08-05T05:43:22;16.60;99.90
2407;DHT22;37709;53.480;9.688;2022-08-05T05:46:09;16.60;99.90
2407;DHT22;37709;53.480;9.688;2022-08-05T05:48:45;16.70;99.90
2407;DHT22;37709;53.480;9.688;2022-08-05T05:51:24;16.70;99.90
2407;DHT22;37709;53.480;9.688;2022-08-05T05:53:55;16.70;99.90
2407;DHT22;37709;53.480;9.688;2022-08-05T05:56:30;17.00;99.90
2407;DHT22;37709;53.480;9.688;2022-08-05T05:59:05;17.10;99.90
2407;DHT22;37709;53.480;9.688;2022-08-05T06:01:36;17.30;99.90
2407;DHT22;37709;53.480;9.688;2022-08-05T06:04:07;17.40;99.90
2407;DHT22;37709;53.480;9.688;2022-08-05T06:06:39;17.60;99.90
2407;DHT22;37709;53.480;9.688;2022-08-05T06:09:09;17.70;99.90
2407;DHT22;37709;53.480;9.688;2022-08-05T06:11:53;18.00;99.90
2407;DHT22;37709;53.480;9.688;2022-08-05T06:14:29;18.20;99.90
2407;DHT22;37709;53.480;9.688;2022-08-05T06:16:57;18.40;99.90
2407;DHT22;37709;53.480;9.688;2022-08-05T06:19:26;18.70;99.90
2407;DHT22;37709;53.480;9.688;2022-08-05T06:22:06;18.80;99.90
2407;DHT22;37709;53.480;9.688;2022-08-05T06:24:40;18.80;99.90
2407;DHT22;37709;53.480;9.688;2022-08-05T06:27:14;18.80;99.90
2407;DHT22;37709;53.480;9.688;2022-08-05T06:30:03;19.10;99.90
2407;DHT22;37709;53.480;9.688;2022-08-05T06:32:47;19.10;99.90
2407;DHT22;37709;53.480;9.688;2022-08-05T06:35:18;19.50;99.90
2407;DHT22;37709;53.480;9.688;2022-08-05T06:38:05;19.90;99.90
2407;DHT22;37709;53.480;9.688;2022-08-05T06:40:37;19.90;99.90
2407;DHT22;37709;53.480;9.688;2022-08-05T06:43:11;20.00;99.90
2407;DHT22;37709;53.480;9.688;2022-08-05T06:45:59;20.10;99.90
2407;DHT22;37709;53.480;9.688;2022-08-05T06:48:34;20.30;99.90
2407;DHT22;37709;53.480;9.688;2022-08-05T06:51:22;20.60;99.90
2407;DHT22;37709;53.480;9.688;2022-08-05T06:54:01;20.70;99.90
2407;DHT22;37709;53.480;9.688;2022-08-05T06:56:30;20.60;99.90
2407;DHT22;37709;53.480;9.688;2022-08-05T06:59:05;20.60;99.90
2407;DHT22;37709;53.480;9.688;2022-08-05T07:01:36;20.40;99.90
2407;DHT22;37709;53.480;9.688;2022-08-05T07:04:08;20.20;99.90
2407;DHT22;37709;53.480;9.688;2022-08-05T07:06:36;20.00;99.90
2407;DHT22;37709;53.480;9.688;2022-08-05T07:09:04;19.80;99.90
2407;DHT22;37709;53.480;9.688;2022-08-05T07:11:33;19.70;99.90
2407;DHT22;37709;53.480;9.688;2022-08-05T07:14:07;19.70;99.90
2407;DHT22;37709;53.480;9.688;2022-08-05T07:16:59;19.60;99.90
2407;DHT22;37709;53.480;9.688;2022-08-05T07:19:48;19.50;99.90
2407;DHT22;37709;53.480;9.688;2022-08-05T07:22:36;19.20;99.90
2407;DHT22;37709;53.480;9.688;2022-08-05T07:25:05;19.00;99.90
2407;DHT22;37709;53.480;9.688;2022-08-05T07:27:55;19.00;99.90
2407;DHT22;37709;53.480;9.688;2022-08-05T07:30:33;19.00;99.90
2407;DHT22;37709;53.480;9.688;2022-08-05T07:33:10;18.90;99.90
2407;DHT22;37709;53.480;9.688;2022-08-05T07:35:46;18.80;99.90
2407;DHT22;37709;53.480;9.688;2022-08-05T07:38:32;18.80;99.90
2407;DHT22;37709;53.480;9.688;2022-08-05T07:41:19;18.70;99.90
2407;DHT22;37709;53.480;9.688;2022-08-05T07:44:07;18.60;99.90
2407;DHT22;37709;53.480;9.688;2022-08-05T07:46:46;18.30;99.90
2407;DHT22;37709;53.480;9.688;2022-08-05T07:49:17;18.10;99.90
2407;DHT22;37709;53.480;9.688;2022-08-05T07:51:45;18.00;99.90
2407;DHT22;37709;53.480;9.688;2022-08-05T07:54:24;17.90;99.90
2407;DHT22;37709;53.480;9.688;2022-08-05T07:57:00;17.80;99.90
2407;DHT22;37709;53.480;9.688;2022-08-05T07:59:48;17.80;99.90
2407;DHT22;37709;53.480;9.688;2022-08-05T08:02:16;17.80;99.90
2407;DHT22;37709;53.480;9.688;2022-08-05T08:04:45;17.70;99.90
2407;DHT22;37709;53.480;9.688;2022-08-05T08:07:18;18.00;99.90
2407;DHT22;37709;53.480;9.688;2022-08-05T08:09:50;18.20;99.90
2407;DHT22;37709;53.480;9.688;2022-08-05T08:12:21;18.20;99.90
2407;DHT22;37709;53.480;9.688;2022-08-05T08:15:09;18.10;99.90
2407;DHT22;37709;53.480;9.688;2022-08-05T08:17:43;18.00;99.90
2407;DHT22;37709;53.480;9.688;2022-08-05T08:20:15;18.10;99.90
2407;DHT22;37709;53.480;9.688;2022-08-05T08:23:03;18.20;99.90
2407;DHT22;37709;53.480;9.688;2022-08-05T08:25:31;18.30;99.90
2407;DHT22;37709;53.480;9.688;2022-08-05T08:28:19;18.40;99.90
2407;DHT22;37709;53.480;9.688;2022-08-05T08:31:07;18.30;99.90
2407;DHT22;37709;53.480;9.688;2022-08-05T08:33:34;18.20;99.90
2407;DHT22;37709;53.480;9.688;2022-08-05T08:36:07;18.00;99.90
2407;DHT22;37709;53.480;9.688;2022-08-05T08:38:54;17.90;99.90
2407;DHT22;37709;53.480;9.688;2022-08-05T08:41:29;17.80;99.90
2407;DHT22;37709;53.480;9.688;2022-08-05T08:44:21;17.70;99.90
2407;DHT22;37709;53.480;9.688;2022-08-05T08:47:10;17.90;99.90
2407;DHT22;37709;53.480;9.688;2022-08-05T08:50:02;17.90;99.90
2407;DHT22;37709;53.480;9.688;2022-08-05T08:52:53;17.70;99.90
2407;DHT22;37709;53.480;9.688;2022-08-05T08:55:23;17.80;99.90
2407;DHT22;37709;53.480;9.688;2022-08-05T08:58:14;17.80;99.90
2407;DHT22;37709;53.480;9.688;2022-08-05T09:00:42;17.60;99.90
2407;DHT22;37709;53.480;9.688;2022-08-05T09:03:11;17.40;99.90
2407;DHT22;37709;53.480;9.688;2022-08-05T09:05:46;17.30;99.90
2407;DHT22;37709;53.480;9.688;2022-08-05T09:08:34;17.20;99.90
2407;DHT22;37709;53.480;9.688;2022-08-05T09:11:07;17.20;99.90
2407;DHT22;37709;53.480;9.688;2022-08-05T09:13:38;17.30;99.90
2407;DHT22;37709;53.480;9.688;2022-08-05T09:16:26;17.40;99.90
2407;DHT22;37709;53.480;9.688;2022-08-05T09:18:54;17.40;99.90
2407;DHT22;37709;53.480;9.688;2022-08-05T09:21:21;17.50;99.90
2407;DHT22;37709;53.480;9.688;2022-08-05T09:24:09;17.50;99.90
2407;DHT22;37709;53.480;9.688;2022-08-05T09:26:39;17.60;99.90
2407;DHT22;37709;53.480;9.688;2022-08-05T09:29:39;17.80;99.90
2407;DHT22;37709;53.480;9.688;2022-08-05T09:32:14;17.90;99.90
2407;DHT22;37709;53.480;9.688;2022-08-05T09:35:13;18.10;99.90
2407;DHT22;37709;53.480;9.688;2022-08-05T09:37:55;18.20;99.90
2407;DHT22;37709;53.480;9.688;2022-08-05T09:41:08;18.30;99.90
2407;DHT22;37709;53.480;9.688;2022-08-05T09:43:37;18.40;99.90
2407;DHT22;37709;53.480;9.688;2022-08-05T09:46:29;18.40;99.90
2407;DHT22;37709;53.480;9.688;2022-08-05T09:48:58;18.30;99.90
2407;DHT22;37709;53.480;9.688;2022-08-05T09:51:45;18.40;99.90
2407;DHT22;37709;53.480;9.688;2022-08-05T09:54:17;18.30;99.90
2407;DHT22;37709;53.480;9.688;2022-08-05T09:56:56;18.10;99.90
2407;DHT22;37709;53.480;9.688;2022-08-05T09:59:28;17.80;99.90
2407;DHT22;37709;53.480;9.688;2022-08-05T10:02:03;17.60;99.90
2407;DHT22;37709;53.480;9.688;2022-08-05T10:04:35;17.60;99.90
2407;DHT22;37709;53.480;9.688;2022-08-05T10:07:05;17.40;99.90
2407;DHT22;37709;53.480;9.688;2022-08-05T10:09:55;17.20;99.90
2407;DHT22;37709;53.480;9.688;2022-08-05T10:12:50;17.10;99.90
2407;DHT22;37709;53.480;9.688;2022-08-05T10:15:25;17.40;99.90
2407;DHT22;37709;53.480;9.688;2022-08-05T10:18:06;17.70;99.90
2407;DHT22;37709;53.480;9.688;2022-08-05T10:20:44;17.70;99.90
2407;DHT22;37709;53.480;9.688;2022-08-05T10:23:19;17.60;99.90
2407;DHT22;37709;53.480;9.688;2022-08-05T10:26:08;17.60;99.90
2407;DHT22;37709;53.480;9.688;2022-08-05T10:28:42;17.60;99.90
2407;DHT22;37709;53.480;9.688;2022-08-05T10:31:14;17.40;99.90
2407;DHT22;37709;53.480;9.688;2022-08-05T10:34:02;17.20;99.90
2407;DHT22;37709;53.480;9.688;2022-08-05T10:36:35;17.10;99.90
2407;DHT22;37709;53.480;9.688;2022-08-05T10:39:07;17.20;99.90
2407;DHT22;37709;53.480;9.688;2022-08-05T10:41:54;17.40;99.90
2407;DHT22;37709;53.480;9.688;2022-08-05T10:44:28;17.50;99.90
2407;DHT22;37709;53.480;9.688;2022-08-05T10:46:57;17.60;99.90
2407;DHT22;37709;53.480;9.688;2022-08-05T10:49:25;17.50;99.90
2407;DHT22;37709;53.480;9.688;2022-08-05T10:51:59;17.20;99.90
2407;DHT22;37709;53.480;9.688;2022-08-05T10:54:48;17.10;99.90
2407;DHT22;37709;53.480;9.688;2022-08-05T10:57:28;17.10;99.90
2407;DHT22;37709;53.480;9.688;2022-08-05T11:00:11;17.10;99.90
2407;DHT22;37709;53.480;9.688;2022-08-05T11:06:21;17.20;99.90
2407;DHT22;37709;53.480;9.688;2022-08-05T11:09:17;17.40;99.90
2407;DHT22;37709;53.480;9.688;2022-08-05T11:11:58;17.40;99.90
2407;DHT22;37709;53.480;9.688;2022-08-05T11:14:29;17.40;99.90
2407;DHT22;37709;53.480;9.688;2022-08-05T11:20:42;17.10;99.90
2407;DHT22;37709;53.480;9.688;2022-08-05T11:26:21;17.40;99.90
2407;DHT22;37709;53.480;9.688;2022-08-05T11:29:00;17.40;99.90
2407;DHT22;37709;53.480;9.688;2022-08-05T11:31:43;17.60;99.90
2407;DHT22;37709;53.480;9.688;2022-08-05T11:34:41;17.70;99.90
2407;DHT22;37709;53.480;9.688;2022-08-05T11:41:00;17.80;99.90
2407;DHT22;37709;53.480;9.688;2022-08-05T11:44:08;17.90;99.90
2407;DHT22;37709;53.480;9.688;2022-08-05T11:47:02;17.70;99.90
2407;DHT22;37709;53.480;9.688;2022-08-05T11:49:57;17.60;99.90
2407;DHT22;37709;53.480;9.688;2022-08-05T11:52:28;17.70;99.90
2407;DHT22;37709;53.480;9.688;2022-08-05T11:54:59;17.80;99.90
2407;DHT22;37709;53.480;9.688;2022-08-05T11:57:34;18.10;99.90
2407;DHT22;37709;53.480;9.688;2022-08-05T12:00:27;18.90;99.90
2407;DHT22;37709;53.480;9.688;2022-08-05T12:02:56;19.60;99.90
2407;DHT22;37709;53.480;9.688;2022-08-05T12:05:26;19.70;99.90
2407;DHT22;37709;53.480;9.688;2022-08-05T12:08:05;19.60;99.90
2407;DHT22;37709;53.480;9.688;2022-08-05T12:10:38;19.70;99.90
2407;DHT22;37709;53.480;9.688;2022-08-05T12:13:16;19.70;99.90
2407;DHT22;37709;53.480;9.688;2022-08-05T12:16:05;19.80;99.90
2407;DHT22;37709;53.480;9.688;2022-08-05T12:18:42;20.30;99.90
2407;DHT22;37709;53.480;9.688;2022-08-05T12:21:22;20.40;99.90
2407;DHT22;37709;53.480;9.688;2022-08-05T12:24:05;20.30;99.90
2407;DHT22;37709;53.480;9.688;2022-08-05T12:26:39;20.50;99.90
2407;DHT22;37709;53.480;9.688;2022-08-05T12:29:18;20.60;99.90
2407;DHT22;37709;53.480;9.688;2022-08-05T12:31:58;20.80;99.90
2407;DHT22;37709;53.480;9.688;2022-08-05T12:34:34;20.90;99.90
2407;DHT22;37709;53.480;9.688;2022-08-05T12:37:08;21.00;99.90
2407;DHT22;37709;53.480;9.688;2022-08-05T12:39:49;20.90;99.90
2407;DHT22;37709;53.480;9.688;2022-08-05T12:42:19;20.80;99.90
2407;DHT22;37709;53.480;9.688;2022-08-05T12:44:47;20.70;99.90
2407;DHT22;37709;53.480;9.688;2022-08-05T12:47:28;20.60;99.90
2407;DHT22;37709;53.480;9.688;2022-08-05T12:49:58;21.20;99.90
2407;DHT22;37709;53.480;9.688;2022-08-05T12:52:34;22.60;99.90
2407;DHT22;37709;53.480;9.688;2022-08-05T12:55:19;24.60;99.90
2407;DHT22;37709;53.480;9.688;2022-08-05T12:57:51;25.10;99.90
2407;DHT22;37709;53.480;9.688;2022-08-05T13:00:41;26.90;99.90
2407;DHT22;37709;53.480;9.688;2022-08-05T13:03:29;28.30;99.90
2407;DHT22;37709;53.480;9.688;2022-08-05T13:06:00;28.40;99.90
2407;DHT22;37709;53.480;9.688;2022-08-05T13:08:29;27.90;99.90
2407;DHT22;37709;53.480;9.688;2022-08-05T13:11:02;27.60;99.90
2407;DHT22;37709;53.480;9.688;2022-08-05T13:13:30;27.80;99.90
2407;DHT22;37709;53.480;9.688;2022-08-05T13:16:18;27.00;99.90
2407;DHT22;37709;53.480;9.688;2022-08-05T13:18:50;26.10;99.90
2407;DHT22;37709;53.480;9.688;2022-08-05T13:21:21;24.90;99.90
2407;DHT22;37709;53.480;9.688;2022-08-05T13:23:54;24.10;99.90
2407;DHT22;37709;53.480;9.688;2022-08-05T13:26:24;24.00;99.90
2407;DHT22;37709;53.480;9.688;2022-08-05T13:28:56;23.90;99.90
2407;DHT22;37709;53.480;9.688;2022-08-05T13:31:26;23.60;99.90
2407;DHT22;37709;53.480;9.688;2022-08-05T13:34:14;23.20;99.90
2407;DHT22;37709;53.480;9.688;2022-08-05T13:36:53;22.90;99.90
2407;DHT22;37709;53.480;9.688;2022-08-05T13:39:22;22.40;99.90
2407;DHT22;37709;53.480;9.688;2022-08-05T13:42:09;22.40;99.90
2407;DHT22;37709;53.480;9.688;2022-08-05T13:44:44;22.10;99.90
2407;DHT22;37709;53.480;9.688;2022-08-05T13:47:13;22.20;99.90
2407;DHT22;37709;53.480;9.688;2022-08-05T13:50:02;21.90;99.90
2407;DHT22;37709;53.480;9.688;2022-08-05T13:52:31;22.00;99.90
2407;DHT22;37709;53.480;9.688;2022-08-05T13:55:03;22.10;99.90
2407;DHT22;37709;53.480;9.688;2022-08-05T13:57:34;22.10;99.90
2407;DHT22;37709;53.480;9.688;2022-08-05T14:00:19;21.90;99.90
2407;DHT22;37709;53.480;9.688;2022-08-05T14:02:55;21.80;99.90
2407;DHT22;37709;53.480;9.688;2022-08-05T14:05:23;22.00;99.90
2407;DHT22;37709;53.480;9.688;2022-08-05T14:08:14;22.30;99.90
2407;DHT22;37709;53.480;9.688;2022-08-05T14:10:47;22.30;99.90
2407;DHT22;37709;53.480;9.688;2022-08-05T14:13:15;22.40;99.90
2407;DHT22;37709;53.480;9.688;2022-08-05T14:15:42;22.50;99.90
2407;DHT22;37709;53.480;9.688;2022-08-05T14:18:30;22.40;99.90
2407;DHT22;37709;53.480;9.688;2022-08-05T14:20:58;22.30;99.90
2407;DHT22;37709;53.480;9.688;2022-08-05T14:23:26;22.10;99.90
2407;DHT22;37709;53.480;9.688;2022-08-05T14:26:03;22.00;99.90
2407;DHT22;37709;53.480;9.688;2022-08-05T14:28:32;21.90;99.90
2407;DHT22;37709;53.480;9.688;2022-08-05T14:31:00;21.80;99.90
2407;DHT22;37709;53.480;9.688;2022-08-05T14:33:28;21.60;99.90
2407;DHT22;37709;53.480;9.688;2022-08-05T14:36:16;21.80;99.90
2407;DHT22;37709;53.480;9.688;2022-08-05T14:38:48;22.40;99.90
2407;DHT22;37709;53.480;9.688;2022-08-05T14:41:17;22.50;99.90
2407;DHT22;37709;53.480;9.688;2022-08-05T14:43:45;22.80;99.90
2407;DHT22;37709;53.480;9.688;2022-08-05T14:46:32;23.40;99.90
2407;DHT22;37709;53.480;9.688;2022-08-05T14:49:02;24.30;99.90
2407;DHT22;37709;53.480;9.688;2022-08-05T14:51:35;24.80;99.90
2407;DHT22;37709;53.480;9.688;2022-08-05T14:54:08;25.80;99.90
2407;DHT22;37709;53.480;9.688;2022-08-05T14:56:56;25.50;99.90
2407;DHT22;37709;53.480;9.688;2022-08-05T14:59:24;24.60;99.90
2407;DHT22;37709;53.480;9.688;2022-08-05T15:01:56;24.30;99.90
2407;DHT22;37709;53.480;9.688;2022-08-05T15:04:24;24.10;99.90
2407;DHT22;37709;53.480;9.688;2022-08-05T15:06:55;24.00;99.90
2407;DHT22;37709;53.480;9.688;2022-08-05T15:09:23;23.70;99.90
2407;DHT22;37709;53.480;9.688;2022-08-05T15:12:10;23.10;99.90
2407;DHT22;37709;53.480;9.688;2022-08-05T15:14:44;22.10;99.90
2407;DHT22;37709;53.480;9.688;2022-08-05T15:17:18;21.30;99.90
2407;DHT22;37709;53.480;9.688;2022-08-05T15:20:07;20.30;99.90
2407;DHT22;37709;53.480;9.688;2022-08-05T15:22:46;19.50;99.90
2407;DHT22;37709;53.480;9.688;2022-08-05T15:25:24;19.30;99.90
2407;DHT22;37709;53.480;9.688;2022-08-05T15:28:13;19.80;99.90
2407;DHT22;37709;53.480;9.688;2022-08-05T15:30:43;20.00;99.90
2407;DHT22;37709;53.480;9.688;2022-08-05T15:33:13;19.80;99.90
2407;DHT22;37709;53.480;9.688;2022-08-05T15:36:03;19.40;99.90
2407;DHT22;37709;53.480;9.688;2022-08-05T15:38:32;19.10;99.90
2407;DHT22;37709;53.480;9.688;2022-08-05T15:41:08;18.70;99.90
2407;DHT22;37709;53.480;9.688;2022-08-05T15:43:51;18.60;99.90
2407;DHT22;37709;53.480;9.688;2022-08-05T15:46:22;19.10;99.90
2407;DHT22;37709;53.480;9.688;2022-08-05T15:48:52;19.30;99.90
2407;DHT22;37709;53.480;9.688;2022-08-05T15:51:36;19.20;99.90
2407;DHT22;37709;53.480;9.688;2022-08-05T15:54:25;19.40;99.90
2407;DHT22;37709;53.480;9.688;2022-08-05T15:57:03;19.60;99.90
2407;DHT22;37709;53.480;9.688;2022-08-05T15:59:34;19.80;99.90
2407;DHT22;37709;53.480;9.688;2022-08-05T16:02:05;19.60;99.90
2407;DHT22;37709;53.480;9.688;2022-08-05T16:04:42;19.60;99.90
2407;DHT22;37709;53.480;9.688;2022-08-05T16:07:11;19.90;99.90
2407;DHT22;37709;53.480;9.688;2022-08-05T16:09:40;19.80;99.90
2407;DHT22;37709;53.480;9.688;2022-08-05T16:12:09;19.60;99.90
2407;DHT22;37709;53.480;9.688;2022-08-05T16:14:38;19.20;99.90
2407;DHT22;37709;53.480;9.688;2022-08-05T16:17:05;19.00;99.90
2407;DHT22;37709;53.480;9.688;2022-08-05T16:19:35;18.80;99.90
2407;DHT22;37709;53.480;9.688;2022-08-05T16:22:23;18.90;99.90
2407;DHT22;37709;53.480;9.688;2022-08-05T16:25:01;19.00;99.90
2407;DHT22;37709;53.480;9.688;2022-08-05T16:27:39;19.10;99.90
2407;DHT22;37709;53.480;9.688;2022-08-05T16:30:27;19.20;99.90
2407;DHT22;37709;53.480;9.688;2022-08-05T16:32:56;19.20;99.90
2407;DHT22;37709;53.480;9.688;2022-08-05T16:35:24;19.10;99.90
2407;DHT22;37709;53.480;9.688;2022-08-05T16:37:58;19.00;99.90
2407;DHT22;37709;53.480;9.688;2022-08-05T16:40:46;19.00;99.90
2407;DHT22;37709;53.480;9.688;2022-08-05T16:43:30;19.00;99.90
2407;DHT22;37709;53.480;9.688;2022-08-05T16:46:01;19.00;99.90
2407;DHT22;37709;53.480;9.688;2022-08-05T16:48:51;19.00;99.90
2407;DHT22;37709;53.480;9.688;2022-08-05T16:51:19;19.00;99.90
2407;DHT22;37709;53.480;9.688;2022-08-05T16:53:48;19.10;99.90
2407;DHT22;37709;53.480;9.688;2022-08-05T16:56:33;19.00;99.90
2407;DHT22;37709;53.480;9.688;2022-08-05T16:59:04;18.90;99.90
2407;DHT22;37709;53.480;9.688;2022-08-05T17:01:36;18.70;99.90
2407;DHT22;37709;53.480;9.688;2022-08-05T17:04:24;18.70;99.90
2407;DHT22;37709;53.480;9.688;2022-08-05T17:06:54;18.70;99.90